createdAt,value
2022-11-24T00:01:32.611Z,1.10
2022-11-24T00:04:02.055Z,1.00
2022-11-24T00:06:30.164Z,1.00
2022-11-24T00:08:57.582Z,0.90
2022-11-24T00:11:27.718Z,1.00
2022-11-24T00:13:54.797Z,1.10
2022-11-24T00:16:24.665Z,1.10
2022-11-24T00:18:53.435Z,1.10
2022-11-24T00:21:21.651Z,1.10
2022-11-24T00:23:49.560Z,1.20
2022-11-24T00:26:25.303Z,1.20
2022-11-24T00:28:53.822Z,1.30
2022-11-24T00:31:25.183Z,1.40
2022-11-24T00:33:55.343Z,1.50
2022-11-24T00:36:27.300Z,1.50
2022-11-24T00:38:59.144Z,1.70
2022-11-24T00:41:27.594Z,1.60
2022-11-24T00:43:55.276Z,1.60
2022-11-24T00:46:23.485Z,1.60
2022-11-24T00:48:50.925Z,1.70
2022-11-24T00:51:19.534Z,1.80
2022-11-24T00:53:48.915Z,1.70
2022-11-24T00:56:16.231Z,1.80
2022-11-24T00:58:43.673Z,1.90
2022-11-24T01:01:16.017Z,1.90
2022-11-24T01:03:43.532Z,1.80
2022-11-24T01:06:16.359Z,1.80
2022-11-24T01:08:43.656Z,1.80
2022-11-24T01:11:21.049Z,1.70
2022-11-24T01:13:50.160Z,1.70
2022-11-24T01:16:20.744Z,1.60
2022-11-24T01:18:48.119Z,1.60
2022-11-24T01:21:16.526Z,1.50
2022-11-24T01:23:43.419Z,1.40
2022-11-24T01:26:13.532Z,1.40
2022-11-24T01:28:47.150Z,1.30
2022-11-24T01:31:15.065Z,1.30
2022-11-24T01:33:42.220Z,1.30
2022-11-24T01:36:09.310Z,1.30
2022-11-24T01:38:36.441Z,1.20
2022-11-24T01:41:04.883Z,1.20
2022-11-24T01:43:32.526Z,1.30
2022-11-24T01:46:32.104Z,1.20
2022-11-24T01:49:18.249Z,1.20
2022-11-24T01:52:04.133Z,1.10
2022-11-24T01:54:36.090Z,1.00
2022-11-24T01:57:26.520Z,1.00
2022-11-24T02:00:02.599Z,1.00
2022-11-24T02:02:45.242Z,1.10
2022-11-24T02:05:24.102Z,1.00
2022-11-24T02:07:52.254Z,1.10
2022-11-24T02:10:21.140Z,1.20
2022-11-24T02:12:50.566Z,1.10
2022-11-24T02:15:18.791Z,1.20
2022-11-24T02:17:45.710Z,1.50
2022-11-24T02:20:13.603Z,1.70
2022-11-24T02:23:01.751Z,1.90
2022-11-24T02:25:56.667Z,2.00
2022-11-24T02:28:26.977Z,2.00
2022-11-24T02:30:55.190Z,2.00
2022-11-24T02:33:22.618Z,2.10
2022-11-24T02:35:49.392Z,2.10
2022-11-24T02:38:16.195Z,2.10
2022-11-24T02:40:47.222Z,2.10
2022-11-24T02:43:20.574Z,2.10
2022-11-24T02:45:47.796Z,2.10
2022-11-24T02:48:18.331Z,2.10
2022-11-24T02:50:45.058Z,2.10
2022-11-24T02:53:14.080Z,2.10
2022-11-24T02:55:40.921Z,2.20
2022-11-24T02:58:07.607Z,2.20
2022-11-24T03:00:36.921Z,2.10
2022-11-24T03:03:04.288Z,2.20
2022-11-24T03:05:31.237Z,2.30
2022-11-24T03:08:00.160Z,2.30
2022-11-24T03:10:26.862Z,2.30
2022-11-24T03:12:55.153Z,2.40
2022-11-24T03:15:23.619Z,2.40
2022-11-24T03:17:54.213Z,2.30
2022-11-24T03:20:23.685Z,2.20
2022-11-24T03:22:53.229Z,2.20
2022-11-24T03:25:20.008Z,2.10
2022-11-24T03:27:47.085Z,2.10
2022-11-24T03:30:14.769Z,2.00
2022-11-24T03:32:44.084Z,2.00
2022-11-24T03:35:11.169Z,2.00
2022-11-24T03:37:38.119Z,2.10
2022-11-24T03:40:07.831Z,2.00
2022-11-24T03:42:37.390Z,1.90
2022-11-24T03:45:37.937Z,1.80
2022-11-24T03:47:58.667Z,1.70
2022-11-24T03:50:26.267Z,1.60
2022-11-24T03:52:53.076Z,1.50
2022-11-24T03:55:20.001Z,1.40
2022-11-24T03:57:47.479Z,1.30
2022-11-24T04:00:17.417Z,1.20
2022-11-24T04:02:44.344Z,1.20
2022-11-24T04:05:13.898Z,1.10
2022-11-24T04:07:40.883Z,1.20
2022-11-24T04:10:08.191Z,1.20
2022-11-24T04:12:44.160Z,1.30
2022-11-24T04:15:19.052Z,1.50
2022-11-24T04:17:47.009Z,1.60
2022-11-24T04:20:16.574Z,1.70
2022-11-24T04:22:50.611Z,1.70
2022-11-24T04:25:17.746Z,1.80
2022-11-24T04:27:44.417Z,1.90
2022-11-24T04:30:11.332Z,1.90
2022-11-24T04:32:38.120Z,1.80
2022-11-24T04:35:07.597Z,2.00
2022-11-24T04:37:35.048Z,2.00
2022-11-24T04:40:05.204Z,2.00
2022-11-24T04:42:32.193Z,1.90
2022-11-24T04:45:01.063Z,1.70
2022-11-24T04:47:28.479Z,1.60
2022-11-24T04:49:55.368Z,1.50
2022-11-24T04:52:23.762Z,1.50
2022-11-24T04:54:50.710Z,1.60
2022-11-24T04:57:25.346Z,1.40
2022-11-24T04:59:52.676Z,1.40
2022-11-24T05:02:20.363Z,1.40
2022-11-24T05:04:47.992Z,1.30
2022-11-24T05:07:18.874Z,1.40
2022-11-24T05:10:06.113Z,1.60
2022-11-24T05:12:33.174Z,1.90
2022-11-24T05:15:09.275Z,1.90
2022-11-24T05:17:38.029Z,2.00
2022-11-24T05:20:06.454Z,2.10
2022-11-24T05:22:33.654Z,2.10
2022-11-24T05:25:04.197Z,2.20
2022-11-24T05:27:31.463Z,2.40
2022-11-24T05:29:58.834Z,2.40
2022-11-24T05:32:27.557Z,2.60
2022-11-24T05:34:54.892Z,2.60
2022-11-24T05:37:21.862Z,2.60
2022-11-24T05:39:48.728Z,2.70
2022-11-24T05:42:36.951Z,2.80
2022-11-24T05:45:15.161Z,2.70
2022-11-24T05:47:45.332Z,2.80
2022-11-24T05:50:15.116Z,2.80
2022-11-24T05:52:42.087Z,2.80
2022-11-24T05:55:10.642Z,2.80
2022-11-24T05:57:38.153Z,2.70
2022-11-24T06:00:10.517Z,2.70
2022-11-24T06:02:40.359Z,2.80
2022-11-24T06:05:07.623Z,2.80
2022-11-24T06:07:34.705Z,2.80
2022-11-24T06:10:03.753Z,2.80
2022-11-24T06:12:33.078Z,3.00
2022-11-24T06:14:59.895Z,3.10
2022-11-24T06:17:29.186Z,3.10
2022-11-24T06:19:56.932Z,3.10
2022-11-24T06:22:23.789Z,3.20
2022-11-24T06:24:51.132Z,3.20
2022-11-24T06:27:19.039Z,3.30
2022-11-24T06:29:46.424Z,3.30
2022-11-24T06:32:15.640Z,3.30
2022-11-24T06:34:43.220Z,3.30
2022-11-24T06:37:11.314Z,3.30
2022-11-24T06:39:40.567Z,3.30
2022-11-24T06:42:08.874Z,3.20
2022-11-24T06:44:36.069Z,3.30
2022-11-24T06:47:03.246Z,3.30
2022-11-24T06:49:30.111Z,3.30
2022-11-24T06:51:56.997Z,3.30
2022-11-24T06:54:23.797Z,3.30
2022-11-24T06:56:56.808Z,3.30
2022-11-24T06:59:23.929Z,3.30
2022-11-24T07:01:51.010Z,3.30
2022-11-24T07:04:19.077Z,3.30
2022-11-24T07:06:46.298Z,3.10
2022-11-24T07:09:14.255Z,3.20
2022-11-24T07:11:42.779Z,3.20
2022-11-24T07:14:10.261Z,3.20
2022-11-24T07:16:39.665Z,3.30
2022-11-24T07:19:06.509Z,3.30
2022-11-24T07:21:33.483Z,3.30
2022-11-24T07:24:00.426Z,3.50
2022-11-24T07:26:27.763Z,3.40
2022-11-24T07:28:57.138Z,3.40
2022-11-24T07:31:27.101Z,3.40
2022-11-24T07:33:56.407Z,3.60
2022-11-24T07:36:23.656Z,3.60
2022-11-24T07:38:50.821Z,3.50
2022-11-24T07:41:22.053Z,3.50
2022-11-24T07:43:49.415Z,3.50
2022-11-24T07:46:19.117Z,3.60
2022-11-24T07:48:48.707Z,3.60
2022-11-24T07:51:16.031Z,3.60
2022-11-24T07:53:43.035Z,3.60
2022-11-24T07:56:10.316Z,3.60
2022-11-24T07:58:37.690Z,3.60
2022-11-24T08:01:13.668Z,3.70
2022-11-24T08:03:41.862Z,3.80
2022-11-24T08:06:30.546Z,3.70
2022-11-24T08:08:59.477Z,3.80
2022-11-24T08:11:27.422Z,3.70
2022-11-24T08:13:56.738Z,3.80
2022-11-24T08:16:23.978Z,3.90
2022-11-24T08:18:53.740Z,3.80
2022-11-24T08:21:21.119Z,3.90
2022-11-24T08:23:50.380Z,3.90
2022-11-24T08:26:19.965Z,3.90
2022-11-24T08:28:47.462Z,4.00
2022-11-24T08:31:22.182Z,4.00
2022-11-24T08:33:49.104Z,3.90
2022-11-24T08:36:20.024Z,4.10
2022-11-24T08:38:48.809Z,4.00
2022-11-24T08:41:19.084Z,4.00
2022-11-24T08:43:45.953Z,4.10
2022-11-24T08:46:17.183Z,4.10
2022-11-24T08:48:54.283Z,4.10
2022-11-24T08:51:24.358Z,4.10
2022-11-24T08:53:58.880Z,4.10
2022-11-24T08:56:30.215Z,4.10
2022-11-24T08:58:58.101Z,4.20
2022-11-24T09:01:28.778Z,4.40
2022-11-24T09:03:57.378Z,4.50
2022-11-24T09:06:27.667Z,4.70
2022-11-24T09:08:56.526Z,5.00
2022-11-24T09:11:25.623Z,5.30
2022-11-24T09:13:55.471Z,5.40
2022-11-24T09:16:26.207Z,5.50
2022-11-24T09:19:15.945Z,5.60
2022-11-24T09:21:45.440Z,5.80
2022-11-24T09:27:00.657Z,5.80
2022-11-24T09:29:28.121Z,5.70
2022-11-24T09:31:55.298Z,5.70
2022-11-24T09:34:22.507Z,6.10
2022-11-24T09:36:51.593Z,6.40
2022-11-24T09:39:18.580Z,6.50
2022-11-24T09:44:48.407Z,6.30
2022-11-24T09:47:46.651Z,6.20
2022-11-24T09:50:18.399Z,6.00
2022-11-24T09:52:54.826Z,5.90
2022-11-24T09:55:24.818Z,5.90
2022-11-24T09:58:06.543Z,5.80
2022-11-24T10:00:34.292Z,6.10
2022-11-24T10:03:07.763Z,6.20
2022-11-24T10:05:37.408Z,6.30
2022-11-24T10:08:27.207Z,6.10
2022-11-24T10:11:00.325Z,6.00
2022-11-24T10:13:54.432Z,5.90
2022-11-24T10:16:33.345Z,5.90
2022-11-24T10:19:36.441Z,6.00
2022-11-24T10:22:28.444Z,6.00
2022-11-24T10:25:16.907Z,6.00
2022-11-24T10:27:59.986Z,6.00
2022-11-24T10:30:27.237Z,5.90
2022-11-24T10:33:03.370Z,5.80
2022-11-24T10:35:45.889Z,5.70
2022-11-24T10:38:21.657Z,5.70
2022-11-24T10:40:58.029Z,5.80
2022-11-24T10:43:30.309Z,6.00
2022-11-24T10:46:15.554Z,6.10
2022-11-24T10:48:53.651Z,6.20
2022-11-24T10:51:41.172Z,6.00
2022-11-24T10:54:18.539Z,6.00
2022-11-24T10:56:46.625Z,6.00
2022-11-24T10:59:29.672Z,6.10
2022-11-24T11:01:58.849Z,6.20
2022-11-24T11:04:29.228Z,6.30
2022-11-24T11:07:28.651Z,6.40
2022-11-24T11:10:33.316Z,6.30
2022-11-24T11:13:20.060Z,6.30
2022-11-24T11:15:46.981Z,6.30
2022-11-24T11:18:18.652Z,6.20
2022-11-24T11:20:57.618Z,6.20
2022-11-24T11:23:29.867Z,6.40
2022-11-24T11:26:24.390Z,6.80
2022-11-24T11:35:07.515Z,8.20
2022-11-24T11:37:34.586Z,8.70
2022-11-24T11:40:02.444Z,8.90
2022-11-24T11:43:01.262Z,9.10
2022-11-24T11:45:50.440Z,9.30
2022-11-24T11:48:33.725Z,9.00
2022-11-24T11:51:26.580Z,8.80
2022-11-24T11:54:15.074Z,8.90
2022-11-24T11:56:45.880Z,8.90
2022-11-24T11:59:41.208Z,8.60
2022-11-24T12:02:30.011Z,8.60
2022-11-24T12:04:58.692Z,8.30
2022-11-24T12:07:46.537Z,8.20
2022-11-24T12:10:26.839Z,8.10
2022-11-24T12:13:15.587Z,8.00
2022-11-24T12:15:52.418Z,8.00
2022-11-24T12:18:58.514Z,7.80
2022-11-24T12:21:48.931Z,7.80
2022-11-24T12:24:58.176Z,7.80
2022-11-24T12:27:40.107Z,7.80
2022-11-24T12:30:16.261Z,7.80
2022-11-24T12:32:58.323Z,7.80
2022-11-24T12:35:37.460Z,7.70
2022-11-24T12:38:25.562Z,7.70
2022-11-24T12:40:55.245Z,7.70
2022-11-24T12:43:39.866Z,7.70
2022-11-24T12:46:39.453Z,7.70
2022-11-24T12:49:18.776Z,7.70
2022-11-24T12:51:53.508Z,7.60
2022-11-24T12:54:21.674Z,7.60
2022-11-24T12:57:00.467Z,7.50
2022-11-24T12:59:51.813Z,7.50
2022-11-24T13:02:41.983Z,7.40
2022-11-24T13:05:33.633Z,7.30
2022-11-24T13:08:03.888Z,7.30
2022-11-24T13:10:55.683Z,7.20
2022-11-24T13:13:27.985Z,7.10
2022-11-24T13:16:34.594Z,7.10
2022-11-24T13:18:46.880Z,7.10
2022-11-24T13:21:41.474Z,7.20
2022-11-24T13:24:33.764Z,7.10
2022-11-24T13:27:16.545Z,7.00
2022-11-24T13:29:46.076Z,6.90
2022-11-24T13:32:12.964Z,7.00
2022-11-24T13:34:42.984Z,7.10
2022-11-24T13:37:31.327Z,7.10
2022-11-24T13:40:13.007Z,7.10
2022-11-24T13:43:02.799Z,7.10
2022-11-24T13:45:43.126Z,7.00
2022-11-24T13:48:19.715Z,6.80
2022-11-24T13:50:49.738Z,6.60
2022-11-24T13:53:32.186Z,6.40
2022-11-24T13:56:15.006Z,6.20
2022-11-24T13:58:46.492Z,6.00
2022-11-24T14:01:18.938Z,5.90
2022-11-24T14:07:08.341Z,5.70
2022-11-24T14:09:45.911Z,5.40
2022-11-24T14:12:25.253Z,5.40
2022-11-24T14:14:57.014Z,5.30
2022-11-24T14:17:27.544Z,5.30
2022-11-24T14:20:00.589Z,5.40
2022-11-24T14:22:43.265Z,5.40
2022-11-24T14:25:39.940Z,5.30
2022-11-24T14:28:28.259Z,5.30
2022-11-24T14:31:09.964Z,5.30
2022-11-24T14:33:36.832Z,5.30
2022-11-24T14:36:13.631Z,5.20
2022-11-24T14:38:40.948Z,5.20
2022-11-24T14:41:23.086Z,4.90
2022-11-24T14:43:50.153Z,4.90
2022-11-24T14:46:25.372Z,4.70
2022-11-24T14:48:53.749Z,4.70
2022-11-24T14:51:34.103Z,4.50
2022-11-24T14:54:07.058Z,4.60
2022-11-24T14:56:38.583Z,4.60
2022-11-24T14:59:22.570Z,4.60
2022-11-24T15:01:49.560Z,4.60
2022-11-24T15:04:39.344Z,4.60
2022-11-24T15:07:24.797Z,4.50
2022-11-24T15:09:57.796Z,4.40
2022-11-24T15:12:42.350Z,4.20
2022-11-24T15:15:15.574Z,4.00
2022-11-24T15:17:47.503Z,3.80
2022-11-24T15:20:38.321Z,3.60
2022-11-24T15:23:26.668Z,3.50
2022-11-24T15:26:02.600Z,3.30
2022-11-24T15:28:32.908Z,3.20
2022-11-24T15:31:05.372Z,3.10
2022-11-24T15:33:32.926Z,3.00
2022-11-24T15:36:00.243Z,2.90
2022-11-24T15:38:27.738Z,2.80
2022-11-24T15:40:56.304Z,2.70
2022-11-24T15:43:35.072Z,2.50
2022-11-24T15:46:03.970Z,2.50
2022-11-24T15:48:33.821Z,2.50
2022-11-24T15:51:03.223Z,2.20
2022-11-24T15:53:42.784Z,2.10
2022-11-24T15:56:18.530Z,2.00
2022-11-24T15:58:45.442Z,2.00
2022-11-24T16:01:12.993Z,1.90
2022-11-24T16:03:48.775Z,1.80
2022-11-24T16:06:24.122Z,1.80
2022-11-24T16:08:52.456Z,1.80
2022-11-24T16:11:22.444Z,1.70
2022-11-24T16:13:52.825Z,1.60
2022-11-24T16:16:22.066Z,1.70
2022-11-24T16:18:51.370Z,1.60
2022-11-24T16:21:18.458Z,1.50
2022-11-24T16:23:46.756Z,1.40
2022-11-24T16:26:13.470Z,1.30
2022-11-24T16:28:41.188Z,1.30
2022-11-24T16:31:23.213Z,1.30
2022-11-24T16:33:51.260Z,1.10
2022-11-24T16:36:27.788Z,1.00
2022-11-24T16:38:56.338Z,0.80
2022-11-24T16:41:23.653Z,0.70
2022-11-24T16:43:50.406Z,0.70
2022-11-24T16:46:19.039Z,0.70
2022-11-24T16:48:49.588Z,0.70
2022-11-24T16:51:20.560Z,0.70
2022-11-24T16:53:47.825Z,0.70
2022-11-24T16:56:16.307Z,0.70
2022-11-24T16:58:43.181Z,0.60
2022-11-24T17:01:12.965Z,0.60
2022-11-24T17:03:40.880Z,0.60
2022-11-24T17:06:15.629Z,0.60
2022-11-24T17:08:43.845Z,0.50
2022-11-24T17:11:18.957Z,0.50
2022-11-24T17:13:47.163Z,0.50
2022-11-24T17:16:16.012Z,0.60
2022-11-24T17:18:44.441Z,0.70
2022-11-24T17:21:25.563Z,0.60
2022-11-24T17:23:57.197Z,0.50
2022-11-24T17:26:25.288Z,0.60
2022-11-24T17:28:52.739Z,0.50
2022-11-24T17:31:43.767Z,0.50
2022-11-24T17:34:19.047Z,0.40
2022-11-24T17:36:46.314Z,0.20
2022-11-24T17:39:19.134Z,0.20
2022-11-24T17:41:50.911Z,0.20
2022-11-24T17:44:17.647Z,0.00
2022-11-24T17:46:44.931Z,0.10
2022-11-24T17:49:14.587Z,0.00
2022-11-24T17:51:41.545Z,0.00
2022-11-24T17:54:44.764Z,0.10
2022-11-24T17:56:58.133Z,0.20
2022-11-24T17:59:25.200Z,0.30
2022-11-24T18:01:52.320Z,0.30
2022-11-24T18:04:19.582Z,0.20
2022-11-24T18:06:48.494Z,0.20
2022-11-24T18:09:15.205Z,0.00
2022-11-24T18:11:43.407Z,0.20
2022-11-24T18:14:10.356Z,0.00
2022-11-24T18:16:37.371Z,0.00
2022-11-24T18:19:09.793Z,0.00
2022-11-24T18:21:40.927Z,0.00
2022-11-24T18:24:12.111Z,-0.10
2022-11-24T18:26:40.868Z,-0.10
2022-11-24T18:29:07.948Z,-0.10
2022-11-24T18:31:36.046Z,-0.10
2022-11-24T18:34:05.131Z,-0.10
2022-11-24T18:36:35.252Z,-0.20
2022-11-24T18:39:04.643Z,-0.20
2022-11-24T18:41:31.832Z,-0.10
2022-11-24T18:44:08.042Z,-0.10
2022-11-24T18:46:37.629Z,-0.20
2022-11-24T18:49:05.328Z,-0.20
2022-11-24T18:51:32.141Z,-0.30
2022-11-24T18:53:59.253Z,-0.30
2022-11-24T18:56:31.484Z,-0.30
2022-11-24T18:58:58.320Z,-0.40
2022-11-24T19:01:27.342Z,-0.40
2022-11-24T19:03:57.409Z,-0.40
2022-11-24T19:06:33.622Z,-0.50
2022-11-24T19:09:11.247Z,-0.40
2022-11-24T19:11:41.935Z,-0.50
2022-11-24T19:14:13.021Z,-0.60
2022-11-24T19:16:40.892Z,-0.50
2022-11-24T19:19:08.990Z,-0.50
2022-11-24T19:21:39.558Z,-0.60
2022-11-24T19:24:10.488Z,-0.50
2022-11-24T19:26:41.077Z,-0.50
2022-11-24T19:29:08.396Z,-0.60
2022-11-24T19:31:35.491Z,-0.60
2022-11-24T19:34:03.499Z,-0.60
2022-11-24T19:36:32.856Z,-0.50
2022-11-24T19:39:05.107Z,-0.50
2022-11-24T19:41:33.136Z,-0.40
2022-11-24T19:44:00.197Z,-0.40
2022-11-24T19:46:29.845Z,-0.40
2022-11-24T19:49:01.021Z,-0.40
2022-11-24T19:51:33.105Z,-0.40
2022-11-24T19:54:00.631Z,-0.40
2022-11-24T19:56:29.858Z,-0.40
2022-11-24T19:58:57.624Z,-0.40
2022-11-24T20:01:27.605Z,-0.40
2022-11-24T20:04:06.561Z,-0.30
2022-11-24T20:06:36.995Z,-0.60
2022-11-24T20:09:06.281Z,-0.60
2022-11-24T20:11:38.620Z,-0.70
2022-11-24T20:14:07.100Z,-0.70
2022-11-24T20:16:34.673Z,-0.80
2022-11-24T20:19:08.165Z,-0.80
2022-11-24T20:21:36.720Z,-0.80
2022-11-24T20:24:05.698Z,-0.60
2022-11-24T20:26:36.562Z,-0.60
2022-11-24T20:29:06.392Z,-0.60
2022-11-24T20:31:39.963Z,-0.60
2022-11-24T20:34:08.405Z,-0.70
2022-11-24T20:36:36.996Z,-0.70
2022-11-24T20:39:07.932Z,-0.70
2022-11-24T20:41:37.934Z,-0.80
2022-11-24T20:44:10.634Z,-0.80
2022-11-24T20:46:39.099Z,-0.90
2022-11-24T20:49:12.986Z,-0.90
2022-11-24T20:51:44.199Z,-1.00
2022-11-24T20:54:14.998Z,-1.00
2022-11-24T20:56:43.626Z,-1.10
2022-11-24T20:59:17.769Z,-1.10
2022-11-24T21:01:46.658Z,-1.10
2022-11-24T21:04:20.407Z,-1.20
2022-11-24T21:06:47.794Z,-1.20
2022-11-24T21:09:15.662Z,-1.10
2022-11-24T21:11:43.128Z,-1.20
2022-11-24T21:14:12.984Z,-1.30
2022-11-24T21:16:41.393Z,-1.20
2022-11-24T21:19:12.194Z,-1.30
2022-11-24T21:21:42.699Z,-1.30
2022-11-24T21:24:13.200Z,-1.30
2022-11-24T21:26:41.156Z,-1.30
2022-11-24T21:29:11.105Z,-1.40
2022-11-24T21:31:38.990Z,-1.40
2022-11-24T21:34:08.636Z,-1.40
2022-11-24T21:36:44.470Z,-1.40
2022-11-24T21:39:14.502Z,-1.40
2022-11-24T21:41:43.926Z,-1.30
2022-11-24T21:44:12.915Z,-1.30
2022-11-24T21:46:44.936Z,-1.30
2022-11-24T21:49:16.607Z,-1.30
2022-11-24T21:51:43.711Z,-1.30
2022-11-24T21:54:12.794Z,-1.50
2022-11-24T21:56:41.847Z,-1.40
2022-11-24T21:59:09.128Z,-1.40
2022-11-24T22:01:35.998Z,-1.30
2022-11-24T22:04:03.185Z,-1.30
2022-11-24T22:06:30.304Z,-1.30
2022-11-24T22:08:57.303Z,-1.40
2022-11-24T22:11:25.431Z,-1.60
2022-11-24T22:13:52.798Z,-1.60
2022-11-24T22:16:24.076Z,-1.70
2022-11-24T22:18:51.502Z,-1.70
2022-11-24T22:21:24.045Z,-1.60
2022-11-24T22:23:52.422Z,-1.50
2022-11-24T22:26:21.158Z,-1.60
2022-11-24T22:28:49.625Z,-1.70
2022-11-24T22:31:21.517Z,-1.80
2022-11-24T22:33:49.893Z,-1.90
2022-11-24T22:36:18.694Z,-1.90
2022-11-24T22:38:45.737Z,-2.00
2022-11-24T22:41:15.371Z,-2.10
2022-11-24T22:43:43.544Z,-2.00
2022-11-24T22:46:12.932Z,-2.10
2022-11-24T22:48:41.100Z,-2.10
2022-11-24T22:51:16.575Z,-2.20
2022-11-24T22:53:55.320Z,-2.30
2022-11-24T22:56:23.455Z,-2.30
2022-11-24T22:58:51.212Z,-2.40
2022-11-24T23:01:18.419Z,-2.40
2022-11-24T23:03:49.746Z,-2.40
2022-11-24T23:06:20.416Z,-2.30
2022-11-24T23:08:48.434Z,-2.30
2022-11-24T23:11:19.819Z,-2.40
2022-11-24T23:13:47.378Z,-2.40
2022-11-24T23:16:16.966Z,-2.60
2022-11-24T23:18:48.804Z,-2.60
2022-11-24T23:21:38.897Z,-2.50
2022-11-24T23:24:07.034Z,-2.50
2022-11-24T23:26:41.597Z,-2.50
2022-11-24T23:29:11.562Z,-2.50
2022-11-24T23:31:40.160Z,-2.50
2022-11-24T23:34:07.172Z,-2.70
2022-11-24T23:36:33.946Z,-2.60
2022-11-24T23:39:11.183Z,-2.50
2022-11-24T23:41:38.333Z,-2.50
2022-11-24T23:44:07.964Z,-2.40
2022-11-24T23:46:34.970Z,-2.50
2022-11-24T23:49:06.383Z,-2.50
2022-11-24T23:51:33.513Z,-2.50
2022-11-24T23:54:07.283Z,-2.60
2022-11-24T23:56:34.232Z,-2.60
2022-11-24T23:59:02.169Z,-2.60
